sensor_id;sensor_type;location;lat;lon;timestamp;P1;durP1;ratioP1;P2;durP2;ratioP2
56830;SDS011;42713;42.676;23.352;2023-06-14T00:00:40;13.93;;;6.45;;
56830;SDS011;42713;42.676;23.352;2023-06-14T00:03:11;11.68;;;6.38;;
56830;SDS011;42713;42.676;23.352;2023-06-14T00:05:38;13.27;;;6.28;;
56830;SDS011;42713;42.676;23.352;2023-06-14T00:08:07;13.73;;;7.50;;
56830;SDS011;42713;42.676;23.352;2023-06-14T00:10:34;10.82;;;6.47;;
56830;SDS011;42713;42.676;23.352;2023-06-14T00:13:01;12.82;;;7.07;;
56830;SDS011;42713;42.676;23.352;2023-06-14T00:15:27;19.85;;;6.55;;
56830;SDS011;42713;42.676;23.352;2023-06-14T00:17:53;11.50;;;6.28;;
56830;SDS011;42713;42.676;23.352;2023-06-14T00:20:19;10.63;;;6.10;;
56830;SDS011;42713;42.676;23.352;2023-06-14T00:22:45;11.68;;;6.13;;
56830;SDS011;42713;42.676;23.352;2023-06-14T00:25:11;9.63;;;6.05;;
56830;SDS011;42713;42.676;23.352;2023-06-14T00:27:37;9.80;;;5.55;;
56830;SDS011;42713;42.676;23.352;2023-06-14T00:30:02;12.45;;;5.90;;
56830;SDS011;42713;42.676;23.352;2023-06-14T00:32:28;11.25;;;5.63;;
56830;SDS011;42713;42.676;23.352;2023-06-14T00:34:54;10.50;;;5.32;;
56830;SDS011;42713;42.676;23.352;2023-06-14T00:37:19;13.77;;;6.03;;
56830;SDS011;42713;42.676;23.352;2023-06-14T00:39:45;11.18;;;5.47;;
56830;SDS011;42713;42.676;23.352;2023-06-14T00:42:10;10.55;;;5.22;;
56830;SDS011;42713;42.676;23.352;2023-06-14T00:44:36;8.75;;;5.40;;
56830;SDS011;42713;42.676;23.352;2023-06-14T00:47:01;9.88;;;5.68;;
56830;SDS011;42713;42.676;23.352;2023-06-14T00:49:27;12.10;;;5.63;;
56830;SDS011;42713;42.676;23.352;2023-06-14T00:51:54;8.57;;;5.10;;
56830;SDS011;42713;42.676;23.352;2023-06-14T00:54:20;12.77;;;5.30;;
56830;SDS011;42713;42.676;23.352;2023-06-14T00:56:45;11.77;;;5.60;;
56830;SDS011;42713;42.676;23.352;2023-06-14T00:59:11;11.50;;;4.93;;
56830;SDS011;42713;42.676;23.352;2023-06-14T01:01:37;11.00;;;4.93;;
56830;SDS011;42713;42.676;23.352;2023-06-14T01:04:03;9.10;;;4.70;;
56830;SDS011;42713;42.676;23.352;2023-06-14T01:06:35;10.05;;;4.45;;
56830;SDS011;42713;42.676;23.352;2023-06-14T01:09:32;9.07;;;4.30;;
56830;SDS011;42713;42.676;23.352;2023-06-14T01:12:13;8.65;;;4.60;;
56830;SDS011;42713;42.676;23.352;2023-06-14T01:14:46;8.00;;;4.95;;
56830;SDS011;42713;42.676;23.352;2023-06-14T01:17:15;13.70;;;4.97;;
56830;SDS011;42713;42.676;23.352;2023-06-14T01:19:44;9.65;;;5.05;;
56830;SDS011;42713;42.676;23.352;2023-06-14T01:22:11;11.88;;;5.68;;
56830;SDS011;42713;42.676;23.352;2023-06-14T01:24:36;11.57;;;5.35;;
56830;SDS011;42713;42.676;23.352;2023-06-14T01:27:04;10.75;;;5.50;;
56830;SDS011;42713;42.676;23.352;2023-06-14T01:29:30;12.15;;;5.10;;
56830;SDS011;42713;42.676;23.352;2023-06-14T01:31:58;8.55;;;5.60;;
56830;SDS011;42713;42.676;23.352;2023-06-14T01:34:25;9.15;;;4.82;;
56830;SDS011;42713;42.676;23.352;2023-06-14T01:36:51;9.98;;;5.55;;
56830;SDS011;42713;42.676;23.352;2023-06-14T01:39:19;10.45;;;5.85;;
56830;SDS011;42713;42.676;23.352;2023-06-14T01:41:46;9.80;;;5.63;;
56830;SDS011;42713;42.676;23.352;2023-06-14T01:44:14;11.18;;;5.50;;
56830;SDS011;42713;42.676;23.352;2023-06-14T01:46:41;9.00;;;5.43;;
56830;SDS011;42713;42.676;23.352;2023-06-14T01:49:08;9.80;;;5.53;;
56830;SDS011;42713;42.676;23.352;2023-06-14T01:51:33;12.80;;;5.85;;
56830;SDS011;42713;42.676;23.352;2023-06-14T01:53:59;11.60;;;5.15;;
56830;SDS011;42713;42.676;23.352;2023-06-14T01:56:25;11.98;;;5.63;;
56830;SDS011;42713;42.676;23.352;2023-06-14T01:58:51;8.77;;;5.10;;
56830;SDS011;42713;42.676;23.352;2023-06-14T02:01:17;8.52;;;4.97;;
56830;SDS011;42713;42.676;23.352;2023-06-14T02:03:44;11.25;;;5.50;;
56830;SDS011;42713;42.676;23.352;2023-06-14T02:06:10;11.25;;;5.60;;
56830;SDS011;42713;42.676;23.352;2023-06-14T02:08:35;13.52;;;5.40;;
56830;SDS011;42713;42.676;23.352;2023-06-14T02:11:01;10.80;;;5.63;;
56830;SDS011;42713;42.676;23.352;2023-06-14T02:13:26;12.80;;;5.57;;
56830;SDS011;42713;42.676;23.352;2023-06-14T02:15:52;12.38;;;5.57;;
56830;SDS011;42713;42.676;23.352;2023-06-14T02:18:19;12.77;;;5.35;;
56830;SDS011;42713;42.676;23.352;2023-06-14T02:20:46;9.50;;;6.03;;
56830;SDS011;42713;42.676;23.352;2023-06-14T02:23:12;9.15;;;5.82;;
56830;SDS011;42713;42.676;23.352;2023-06-14T02:25:37;9.77;;;5.70;;
56830;SDS011;42713;42.676;23.352;2023-06-14T02:28:04;11.13;;;5.75;;
56830;SDS011;42713;42.676;23.352;2023-06-14T02:30:30;9.05;;;6.20;;
56830;SDS011;42713;42.676;23.352;2023-06-14T02:32:56;11.25;;;6.38;;
56830;SDS011;42713;42.676;23.352;2023-06-14T02:35:21;14.90;;;5.93;;
56830;SDS011;42713;42.676;23.352;2023-06-14T02:37:51;19.52;;;6.28;;
56830;SDS011;42713;42.676;23.352;2023-06-14T02:40:17;10.63;;;6.10;;
56830;SDS011;42713;42.676;23.352;2023-06-14T02:42:43;9.23;;;6.00;;
56830;SDS011;42713;42.676;23.352;2023-06-14T02:45:09;11.20;;;5.95;;
56830;SDS011;42713;42.676;23.352;2023-06-14T02:47:34;11.80;;;6.75;;
56830;SDS011;42713;42.676;23.352;2023-06-14T02:50:00;12.70;;;6.35;;
56830;SDS011;42713;42.676;23.352;2023-06-14T02:52:25;17.02;;;8.05;;
56830;SDS011;42713;42.676;23.352;2023-06-14T02:54:51;13.02;;;7.30;;
56830;SDS011;42713;42.676;23.352;2023-06-14T02:57:17;9.77;;;6.93;;
56830;SDS011;42713;42.676;23.352;2023-06-14T02:59:42;12.80;;;6.75;;
56830;SDS011;42713;42.676;23.352;2023-06-14T03:02:07;12.48;;;6.38;;
56830;SDS011;42713;42.676;23.352;2023-06-14T03:04:33;12.80;;;6.10;;
56830;SDS011;42713;42.676;23.352;2023-06-14T03:07:02;12.50;;;6.10;;
56830;SDS011;42713;42.676;23.352;2023-06-14T03:09:36;10.82;;;5.80;;
56830;SDS011;42713;42.676;23.352;2023-06-14T03:12:02;11.60;;;6.63;;
56830;SDS011;42713;42.676;23.352;2023-06-14T03:14:29;10.98;;;6.45;;
56830;SDS011;42713;42.676;23.352;2023-06-14T03:16:55;9.68;;;5.53;;
56830;SDS011;42713;42.676;23.352;2023-06-14T03:19:22;8.93;;;6.00;;
56830;SDS011;42713;42.676;23.352;2023-06-14T03:21:48;14.90;;;6.22;;
56830;SDS011;42713;42.676;23.352;2023-06-14T03:24:14;12.93;;;5.80;;
56830;SDS011;42713;42.676;23.352;2023-06-14T03:26:41;11.48;;;6.03;;
56830;SDS011;42713;42.676;23.352;2023-06-14T03:29:07;10.52;;;5.57;;
56830;SDS011;42713;42.676;23.352;2023-06-14T03:31:33;9.57;;;5.60;;
56830;SDS011;42713;42.676;23.352;2023-06-14T03:34:00;11.05;;;6.05;;
56830;SDS011;42713;42.676;23.352;2023-06-14T03:36:26;10.77;;;5.90;;
56830;SDS011;42713;42.676;23.352;2023-06-14T03:38:52;10.43;;;6.30;;
56830;SDS011;42713;42.676;23.352;2023-06-14T03:41:18;11.43;;;6.63;;
56830;SDS011;42713;42.676;23.352;2023-06-14T03:43:44;11.05;;;6.30;;
56830;SDS011;42713;42.676;23.352;2023-06-14T03:46:09;11.25;;;6.25;;
56830;SDS011;42713;42.676;23.352;2023-06-14T03:48:35;11.30;;;6.63;;
56830;SDS011;42713;42.676;23.352;2023-06-14T03:51:00;11.52;;;6.57;;
56830;SDS011;42713;42.676;23.352;2023-06-14T03:53:26;13.15;;;6.60;;
56830;SDS011;42713;42.676;23.352;2023-06-14T03:55:53;10.55;;;6.35;;
56830;SDS011;42713;42.676;23.352;2023-06-14T03:58:19;11.98;;;6.60;;
56830;SDS011;42713;42.676;23.352;2023-06-14T04:00:44;12.88;;;7.45;;
56830;SDS011;42713;42.676;23.352;2023-06-14T04:03:10;11.25;;;6.68;;
56830;SDS011;42713;42.676;23.352;2023-06-14T04:05:38;11.68;;;6.75;;
56830;SDS011;42713;42.676;23.352;2023-06-14T04:08:07;13.02;;;6.97;;
56830;SDS011;42713;42.676;23.352;2023-06-14T04:10:34;10.77;;;6.90;;
56830;SDS011;42713;42.676;23.352;2023-06-14T04:12:59;16.23;;;6.75;;
56830;SDS011;42713;42.676;23.352;2023-06-14T04:15:25;14.40;;;6.60;;
56830;SDS011;42713;42.676;23.352;2023-06-14T04:17:53;17.75;;;10.00;;
56830;SDS011;42713;42.676;23.352;2023-06-14T04:20:22;11.10;;;6.85;;
56830;SDS011;42713;42.676;23.352;2023-06-14T04:22:49;11.65;;;6.28;;
56830;SDS011;42713;42.676;23.352;2023-06-14T04:25:15;11.45;;;7.20;;
56830;SDS011;42713;42.676;23.352;2023-06-14T04:27:42;9.82;;;6.20;;
56830;SDS011;42713;42.676;23.352;2023-06-14T04:30:07;10.75;;;6.97;;
56830;SDS011;42713;42.676;23.352;2023-06-14T04:32:33;14.75;;;7.20;;
56830;SDS011;42713;42.676;23.352;2023-06-14T04:34:59;13.52;;;8.50;;
56830;SDS011;42713;42.676;23.352;2023-06-14T04:37:27;14.18;;;8.90;;
56830;SDS011;42713;42.676;23.352;2023-06-14T04:39:57;18.42;;;9.48;;
56830;SDS011;42713;42.676;23.352;2023-06-14T04:42:23;13.80;;;8.95;;
56830;SDS011;42713;42.676;23.352;2023-06-14T04:44:56;16.05;;;8.68;;
56830;SDS011;42713;42.676;23.352;2023-06-14T04:47:22;14.68;;;9.15;;
56830;SDS011;42713;42.676;23.352;2023-06-14T04:49:50;15.00;;;9.38;;
56830;SDS011;42713;42.676;23.352;2023-06-14T04:52:17;17.80;;;9.85;;
56830;SDS011;42713;42.676;23.352;2023-06-14T04:54:46;14.98;;;10.45;;
56830;SDS011;42713;42.676;23.352;2023-06-14T04:57:12;15.35;;;9.70;;
56830;SDS011;42713;42.676;23.352;2023-06-14T04:59:42;15.55;;;10.27;;
56830;SDS011;42713;42.676;23.352;2023-06-14T05:02:10;16.98;;;9.32;;
56830;SDS011;42713;42.676;23.352;2023-06-14T05:04:38;15.18;;;9.65;;
56830;SDS011;42713;42.676;23.352;2023-06-14T05:07:05;15.70;;;9.02;;
56830;SDS011;42713;42.676;23.352;2023-06-14T05:09:33;14.63;;;9.77;;
56830;SDS011;42713;42.676;23.352;2023-06-14T05:11:58;14.25;;;9.48;;
56830;SDS011;42713;42.676;23.352;2023-06-14T05:14:25;13.55;;;9.27;;
56830;SDS011;42713;42.676;23.352;2023-06-14T05:16:51;13.52;;;9.05;;
56830;SDS011;42713;42.676;23.352;2023-06-14T05:19:18;16.88;;;9.57;;
56830;SDS011;42713;42.676;23.352;2023-06-14T05:21:43;15.30;;;9.35;;
56830;SDS011;42713;42.676;23.352;2023-06-14T05:24:09;14.10;;;10.05;;
56830;SDS011;42713;42.676;23.352;2023-06-14T05:26:36;15.07;;;9.20;;
56830;SDS011;42713;42.676;23.352;2023-06-14T05:29:02;16.00;;;9.23;;
56830;SDS011;42713;42.676;23.352;2023-06-14T05:31:27;14.35;;;9.88;;
56830;SDS011;42713;42.676;23.352;2023-06-14T05:33:53;15.13;;;10.23;;
56830;SDS011;42713;42.676;23.352;2023-06-14T05:36:19;17.52;;;10.65;;
56830;SDS011;42713;42.676;23.352;2023-06-14T05:38:46;16.08;;;10.02;;
56830;SDS011;42713;42.676;23.352;2023-06-14T05:41:12;14.05;;;9.63;;
56830;SDS011;42713;42.676;23.352;2023-06-14T05:43:37;18.10;;;10.60;;
56830;SDS011;42713;42.676;23.352;2023-06-14T05:46:03;17.45;;;10.25;;
56830;SDS011;42713;42.676;23.352;2023-06-14T05:48:29;18.38;;;11.10;;
56830;SDS011;42713;42.676;23.352;2023-06-14T05:50:55;18.92;;;10.80;;
56830;SDS011;42713;42.676;23.352;2023-06-14T05:53:21;13.27;;;9.95;;
56830;SDS011;42713;42.676;23.352;2023-06-14T05:55:46;21.90;;;12.00;;
56830;SDS011;42713;42.676;23.352;2023-06-14T05:58:12;18.75;;;11.30;;
56830;SDS011;42713;42.676;23.352;2023-06-14T06:00:39;16.58;;;11.05;;
56830;SDS011;42713;42.676;23.352;2023-06-14T06:03:04;15.65;;;11.60;;
56830;SDS011;42713;42.676;23.352;2023-06-14T06:05:33;16.55;;;11.35;;
56830;SDS011;42713;42.676;23.352;2023-06-14T06:07:58;22.42;;;12.23;;
56830;SDS011;42713;42.676;23.352;2023-06-14T06:10:24;22.67;;;11.30;;
56830;SDS011;42713;42.676;23.352;2023-06-14T06:12:49;17.73;;;10.93;;
56830;SDS011;42713;42.676;23.352;2023-06-14T06:15:17;15.50;;;9.95;;
56830;SDS011;42713;42.676;23.352;2023-06-14T06:17:43;18.70;;;11.48;;
56830;SDS011;42713;42.676;23.352;2023-06-14T06:20:09;17.05;;;13.02;;
56830;SDS011;42713;42.676;23.352;2023-06-14T06:22:36;16.17;;;11.75;;
56830;SDS011;42713;42.676;23.352;2023-06-14T06:25:02;18.90;;;11.85;;
56830;SDS011;42713;42.676;23.352;2023-06-14T06:27:28;20.83;;;11.93;;
56830;SDS011;42713;42.676;23.352;2023-06-14T06:29:53;17.40;;;12.88;;
56830;SDS011;42713;42.676;23.352;2023-06-14T06:32:19;20.08;;;13.45;;
56830;SDS011;42713;42.676;23.352;2023-06-14T06:34:46;21.40;;;11.93;;
56830;SDS011;42713;42.676;23.352;2023-06-14T06:37:12;23.17;;;12.70;;
56830;SDS011;42713;42.676;23.352;2023-06-14T06:39:38;16.00;;;12.00;;
56830;SDS011;42713;42.676;23.352;2023-06-14T06:42:04;16.90;;;12.32;;
56830;SDS011;42713;42.676;23.352;2023-06-14T06:44:31;20.08;;;11.50;;
56830;SDS011;42713;42.676;23.352;2023-06-14T06:47:00;19.33;;;12.05;;
56830;SDS011;42713;42.676;23.352;2023-06-14T06:49:26;21.20;;;12.20;;
56830;SDS011;42713;42.676;23.352;2023-06-14T06:52:06;17.02;;;11.88;;
56830;SDS011;42713;42.676;23.352;2023-06-14T06:54:32;18.83;;;12.10;;
56830;SDS011;42713;42.676;23.352;2023-06-14T06:56:58;15.30;;;11.70;;
56830;SDS011;42713;42.676;23.352;2023-06-14T06:59:25;20.90;;;12.10;;
56830;SDS011;42713;42.676;23.352;2023-06-14T07:01:50;18.38;;;12.73;;
56830;SDS011;42713;42.676;23.352;2023-06-14T07:04:16;16.73;;;11.98;;
56830;SDS011;42713;42.676;23.352;2023-06-14T07:06:42;19.60;;;11.93;;
56830;SDS011;42713;42.676;23.352;2023-06-14T07:09:07;22.25;;;13.27;;
56830;SDS011;42713;42.676;23.352;2023-06-14T07:11:38;17.50;;;11.37;;
56830;SDS011;42713;42.676;23.352;2023-06-14T07:14:04;20.17;;;11.75;;
56830;SDS011;42713;42.676;23.352;2023-06-14T07:16:30;20.88;;;11.52;;
56830;SDS011;42713;42.676;23.352;2023-06-14T07:18:55;18.58;;;12.38;;
56830;SDS011;42713;42.676;23.352;2023-06-14T07:21:21;17.70;;;12.70;;
56830;SDS011;42713;42.676;23.352;2023-06-14T07:23:47;16.98;;;12.20;;
56830;SDS011;42713;42.676;23.352;2023-06-14T07:26:12;19.80;;;12.23;;
56830;SDS011;42713;42.676;23.352;2023-06-14T07:28:37;18.05;;;12.40;;
56830;SDS011;42713;42.676;23.352;2023-06-14T07:31:03;21.15;;;12.95;;
56830;SDS011;42713;42.676;23.352;2023-06-14T07:33:29;21.70;;;12.63;;
56830;SDS011;42713;42.676;23.352;2023-06-14T07:35:55;17.70;;;12.75;;
56830;SDS011;42713;42.676;23.352;2023-06-14T07:38:21;21.17;;;13.30;;
56830;SDS011;42713;42.676;23.352;2023-06-14T07:40:46;22.45;;;13.48;;
56830;SDS011;42713;42.676;23.352;2023-06-14T07:43:11;22.05;;;14.27;;
56830;SDS011;42713;42.676;23.352;2023-06-14T07:45:37;20.05;;;14.38;;
56830;SDS011;42713;42.676;23.352;2023-06-14T07:48:03;19.00;;;13.32;;
56830;SDS011;42713;42.676;23.352;2023-06-14T07:50:29;23.00;;;13.20;;
56830;SDS011;42713;42.676;23.352;2023-06-14T07:52:54;19.35;;;12.30;;
56830;SDS011;42713;42.676;23.352;2023-06-14T07:55:20;18.45;;;13.20;;
56830;SDS011;42713;42.676;23.352;2023-06-14T07:57:45;21.38;;;11.77;;
56830;SDS011;42713;42.676;23.352;2023-06-14T08:00:11;17.00;;;10.77;;
56830;SDS011;42713;42.676;23.352;2023-06-14T08:02:43;15.35;;;11.15;;
56830;SDS011;42713;42.676;23.352;2023-06-14T08:05:10;18.38;;;11.55;;
56830;SDS011;42713;42.676;23.352;2023-06-14T08:07:38;15.30;;;11.10;;
56830;SDS011;42713;42.676;23.352;2023-06-14T08:10:07;18.02;;;11.10;;
56830;SDS011;42713;42.676;23.352;2023-06-14T08:12:33;17.27;;;11.85;;
56830;SDS011;42713;42.676;23.352;2023-06-14T08:14:59;14.27;;;9.75;;
56830;SDS011;42713;42.676;23.352;2023-06-14T08:17:25;17.08;;;11.32;;
56830;SDS011;42713;42.676;23.352;2023-06-14T08:19:51;22.35;;;11.02;;
56830;SDS011;42713;42.676;23.352;2023-06-14T08:22:17;18.55;;;10.95;;
56830;SDS011;42713;42.676;23.352;2023-06-14T08:24:43;15.75;;;10.05;;
56830;SDS011;42713;42.676;23.352;2023-06-14T08:27:09;15.70;;;10.43;;
56830;SDS011;42713;42.676;23.352;2023-06-14T08:29:35;13.93;;;10.77;;
56830;SDS011;42713;42.676;23.352;2023-06-14T08:32:01;16.50;;;10.18;;
56830;SDS011;42713;42.676;23.352;2023-06-14T08:34:27;16.75;;;9.60;;
56830;SDS011;42713;42.676;23.352;2023-06-14T08:36:52;18.23;;;11.15;;
56830;SDS011;42713;42.676;23.352;2023-06-14T08:39:18;16.15;;;9.77;;
56830;SDS011;42713;42.676;23.352;2023-06-14T08:41:46;13.77;;;10.10;;
56830;SDS011;42713;42.676;23.352;2023-06-14T08:44:14;19.02;;;10.10;;
56830;SDS011;42713;42.676;23.352;2023-06-14T08:46:41;18.73;;;9.68;;
56830;SDS011;42713;42.676;23.352;2023-06-14T08:49:07;18.30;;;9.77;;
56830;SDS011;42713;42.676;23.352;2023-06-14T08:51:36;15.60;;;9.43;;
56830;SDS011;42713;42.676;23.352;2023-06-14T08:54:02;16.15;;;9.35;;
56830;SDS011;42713;42.676;23.352;2023-06-14T08:56:29;13.02;;;8.98;;
56830;SDS011;42713;42.676;23.352;2023-06-14T08:58:56;13.98;;;9.60;;
56830;SDS011;42713;42.676;23.352;2023-06-14T09:01:26;13.32;;;9.18;;
56830;SDS011;42713;42.676;23.352;2023-06-14T09:03:52;15.55;;;8.57;;
56830;SDS011;42713;42.676;23.352;2023-06-14T09:06:19;14.18;;;8.45;;
56830;SDS011;42713;42.676;23.352;2023-06-14T09:08:48;16.65;;;9.63;;
56830;SDS011;42713;42.676;23.352;2023-06-14T09:11:17;14.13;;;9.57;;
56830;SDS011;42713;42.676;23.352;2023-06-14T09:13:44;15.60;;;8.83;;
56830;SDS011;42713;42.676;23.352;2023-06-14T09:16:11;12.38;;;7.75;;
56830;SDS011;42713;42.676;23.352;2023-06-14T09:18:43;13.48;;;8.00;;
56830;SDS011;42713;42.676;23.352;2023-06-14T09:21:13;12.85;;;8.82;;
56830;SDS011;42713;42.676;23.352;2023-06-14T09:23:41;15.73;;;9.25;;
56830;SDS011;42713;42.676;23.352;2023-06-14T09:26:14;14.43;;;8.10;;
56830;SDS011;42713;42.676;23.352;2023-06-14T09:31:07;21.45;;;9.18;;
56830;SDS011;42713;42.676;23.352;2023-06-14T09:33:35;13.15;;;8.38;;
56830;SDS011;42713;42.676;23.352;2023-06-14T09:36:00;11.82;;;8.02;;
56830;SDS011;42713;42.676;23.352;2023-06-14T09:38:26;13.70;;;8.68;;
56830;SDS011;42713;42.676;23.352;2023-06-14T09:40:52;13.73;;;9.20;;
56830;SDS011;42713;42.676;23.352;2023-06-14T09:43:17;12.70;;;7.78;;
56830;SDS011;42713;42.676;23.352;2023-06-14T09:45:44;15.10;;;8.63;;
56830;SDS011;42713;42.676;23.352;2023-06-14T09:48:13;15.80;;;8.88;;
56830;SDS011;42713;42.676;23.352;2023-06-14T09:50:44;10.90;;;7.47;;
56830;SDS011;42713;42.676;23.352;2023-06-14T09:53:11;14.05;;;8.77;;
56830;SDS011;42713;42.676;23.352;2023-06-14T09:55:37;14.70;;;9.20;;
56830;SDS011;42713;42.676;23.352;2023-06-14T09:58:05;15.77;;;9.15;;
56830;SDS011;42713;42.676;23.352;2023-06-14T10:00:32;12.82;;;7.88;;
56830;SDS011;42713;42.676;23.352;2023-06-14T10:03:00;17.23;;;8.82;;
56830;SDS011;42713;42.676;23.352;2023-06-14T10:05:31;15.68;;;8.18;;
56830;SDS011;42713;42.676;23.352;2023-06-14T10:08:04;13.25;;;8.32;;
56830;SDS011;42713;42.676;23.352;2023-06-14T10:10:33;12.30;;;8.85;;
56830;SDS011;42713;42.676;23.352;2023-06-14T10:12:59;13.40;;;8.70;;
56830;SDS011;42713;42.676;23.352;2023-06-14T10:15:42;16.60;;;9.48;;
56830;SDS011;42713;42.676;23.352;2023-06-14T10:24:06;15.15;;;8.07;;
56830;SDS011;42713;42.676;23.352;2023-06-14T10:26:33;10.93;;;7.53;;
56830;SDS011;42713;42.676;23.352;2023-06-14T10:28:59;11.25;;;7.57;;
56830;SDS011;42713;42.676;23.352;2023-06-14T10:31:39;12.00;;;8.00;;
56830;SDS011;42713;42.676;23.352;2023-06-14T10:34:06;15.38;;;7.93;;
56830;SDS011;42713;42.676;23.352;2023-06-14T10:36:32;12.35;;;8.80;;
56830;SDS011;42713;42.676;23.352;2023-06-14T10:41:42;12.73;;;8.40;;
56830;SDS011;42713;42.676;23.352;2023-06-14T10:46:48;12.40;;;7.20;;
56830;SDS011;42713;42.676;23.352;2023-06-14T10:49:17;13.32;;;7.65;;
56830;SDS011;42713;42.676;23.352;2023-06-14T10:51:50;13.45;;;7.82;;
56830;SDS011;42713;42.676;23.352;2023-06-14T10:56:52;13.18;;;7.15;;
56830;SDS011;42713;42.676;23.352;2023-06-14T10:59:20;11.38;;;7.07;;
56830;SDS011;42713;42.676;23.352;2023-06-14T11:04:48;11.75;;;7.45;;
56830;SDS011;42713;42.676;23.352;2023-06-14T11:12:50;15.02;;;7.25;;
56830;SDS011;42713;42.676;23.352;2023-06-14T11:15:19;14.68;;;6.70;;
56830;SDS011;42713;42.676;23.352;2023-06-14T11:17:51;12.90;;;6.50;;
56830;SDS011;42713;42.676;23.352;2023-06-14T11:20:24;12.48;;;6.18;;
56830;SDS011;42713;42.676;23.352;2023-06-14T11:22:51;11.23;;;6.32;;
56830;SDS011;42713;42.676;23.352;2023-06-14T11:25:17;12.55;;;6.88;;
56830;SDS011;42713;42.676;23.352;2023-06-14T11:27:42;11.27;;;6.47;;
56830;SDS011;42713;42.676;23.352;2023-06-14T11:30:09;11.27;;;6.25;;
56830;SDS011;42713;42.676;23.352;2023-06-14T11:32:35;12.95;;;6.60;;
56830;SDS011;42713;42.676;23.352;2023-06-14T11:35:02;10.18;;;6.28;;
56830;SDS011;42713;42.676;23.352;2023-06-14T11:37:28;11.07;;;6.80;;
56830;SDS011;42713;42.676;23.352;2023-06-14T11:39:58;12.27;;;6.70;;
56830;SDS011;42713;42.676;23.352;2023-06-14T11:42:28;10.93;;;6.18;;
56830;SDS011;42713;42.676;23.352;2023-06-14T11:44:54;12.63;;;7.18;;
56830;SDS011;42713;42.676;23.352;2023-06-14T11:47:23;11.60;;;6.57;;
56830;SDS011;42713;42.676;23.352;2023-06-14T11:49:48;14.38;;;6.65;;
56830;SDS011;42713;42.676;23.352;2023-06-14T11:52:20;9.88;;;6.53;;
56830;SDS011;42713;42.676;23.352;2023-06-14T11:54:50;11.93;;;6.28;;
56830;SDS011;42713;42.676;23.352;2023-06-14T11:57:17;10.80;;;6.03;;
56830;SDS011;42713;42.676;23.352;2023-06-14T11:59:43;10.55;;;6.38;;
56830;SDS011;42713;42.676;23.352;2023-06-14T12:02:16;8.73;;;5.70;;
56830;SDS011;42713;42.676;23.352;2023-06-14T12:04:48;10.00;;;5.30;;
56830;SDS011;42713;42.676;23.352;2023-06-14T12:07:15;8.95;;;5.13;;
56830;SDS011;42713;42.676;23.352;2023-06-14T12:10:04;9.23;;;5.18;;
56830;SDS011;42713;42.676;23.352;2023-06-14T12:12:37;9.63;;;5.22;;
56830;SDS011;42713;42.676;23.352;2023-06-14T12:15:04;12.77;;;5.28;;
56830;SDS011;42713;42.676;23.352;2023-06-14T12:17:31;9.75;;;5.53;;
56830;SDS011;42713;42.676;23.352;2023-06-14T12:19:58;11.90;;;5.57;;
56830;SDS011;42713;42.676;23.352;2023-06-14T12:22:26;9.80;;;5.55;;
56830;SDS011;42713;42.676;23.352;2023-06-14T12:24:53;10.98;;;5.57;;
56830;SDS011;42713;42.676;23.352;2023-06-14T12:27:19;10.75;;;5.95;;
56830;SDS011;42713;42.676;23.352;2023-06-14T12:29:58;10.00;;;5.57;;
56830;SDS011;42713;42.676;23.352;2023-06-14T12:32:24;9.65;;;5.22;;
56830;SDS011;42713;42.676;23.352;2023-06-14T12:34:49;10.23;;;4.80;;
56830;SDS011;42713;42.676;23.352;2023-06-14T12:37:14;11.10;;;5.28;;
56830;SDS011;42713;42.676;23.352;2023-06-14T12:39:41;7.75;;;4.72;;
56830;SDS011;42713;42.676;23.352;2023-06-14T12:42:06;11.02;;;5.80;;
56830;SDS011;42713;42.676;23.352;2023-06-14T12:44:32;10.00;;;6.22;;
56830;SDS011;42713;42.676;23.352;2023-06-14T12:47:00;10.23;;;5.75;;
56830;SDS011;42713;42.676;23.352;2023-06-14T12:49:26;9.35;;;5.28;;
56830;SDS011;42713;42.676;23.352;2023-06-14T12:51:51;8.52;;;5.00;;
56830;SDS011;42713;42.676;23.352;2023-06-14T12:54:17;8.57;;;5.30;;
56830;SDS011;42713;42.676;23.352;2023-06-14T12:56:42;12.20;;;5.43;;
56830;SDS011;42713;42.676;23.352;2023-06-14T12:59:09;10.65;;;5.75;;
56830;SDS011;42713;42.676;23.352;2023-06-14T13:01:37;11.18;;;5.05;;
56830;SDS011;42713;42.676;23.352;2023-06-14T13:04:03;12.23;;;5.00;;
56830;SDS011;42713;42.676;23.352;2023-06-14T13:06:29;8.02;;;4.88;;
56830;SDS011;42713;42.676;23.352;2023-06-14T13:08:56;8.35;;;4.90;;
56830;SDS011;42713;42.676;23.352;2023-06-14T13:11:22;7.30;;;4.28;;
56830;SDS011;42713;42.676;23.352;2023-06-14T13:13:48;14.95;;;4.53;;
56830;SDS011;42713;42.676;23.352;2023-06-14T13:16:13;18.23;;;5.15;;
56830;SDS011;42713;42.676;23.352;2023-06-14T13:18:39;12.15;;;5.40;;
56830;SDS011;42713;42.676;23.352;2023-06-14T13:21:05;14.27;;;5.38;;
56830;SDS011;42713;42.676;23.352;2023-06-14T13:23:30;27.48;;;6.80;;
56830;SDS011;42713;42.676;23.352;2023-06-14T13:25:56;11.82;;;5.25;;
56830;SDS011;42713;42.676;23.352;2023-06-14T13:28:21;14.13;;;5.78;;
56830;SDS011;42713;42.676;23.352;2023-06-14T13:30:47;12.43;;;5.65;;
56830;SDS011;42713;42.676;23.352;2023-06-14T13:33:13;10.75;;;5.78;;
56830;SDS011;42713;42.676;23.352;2023-06-14T13:35:38;17.65;;;6.43;;
56830;SDS011;42713;42.676;23.352;2023-06-14T13:38:04;10.73;;;6.20;;
56830;SDS011;42713;42.676;23.352;2023-06-14T13:40:29;14.52;;;6.30;;
56830;SDS011;42713;42.676;23.352;2023-06-14T13:42:55;11.45;;;5.75;;
56830;SDS011;42713;42.676;23.352;2023-06-14T13:45:20;10.75;;;6.53;;
56830;SDS011;42713;42.676;23.352;2023-06-14T13:47:46;11.00;;;5.65;;
56830;SDS011;42713;42.676;23.352;2023-06-14T13:50:13;9.55;;;6.18;;
56830;SDS011;42713;42.676;23.352;2023-06-14T13:52:39;9.32;;;6.00;;
56830;SDS011;42713;42.676;23.352;2023-06-14T13:55:05;12.10;;;5.55;;
56830;SDS011;42713;42.676;23.352;2023-06-14T13:57:31;10.23;;;5.53;;
56830;SDS011;42713;42.676;23.352;2023-06-14T13:59:57;13.35;;;6.05;;
56830;SDS011;42713;42.676;23.352;2023-06-14T14:02:26;10.68;;;5.93;;
56830;SDS011;42713;42.676;23.352;2023-06-14T14:04:54;8.85;;;5.68;;
56830;SDS011;42713;42.676;23.352;2023-06-14T14:07:20;11.25;;;6.47;;
56830;SDS011;42713;42.676;23.352;2023-06-14T14:09:47;9.90;;;5.38;;
56830;SDS011;42713;42.676;23.352;2023-06-14T14:12:13;11.15;;;6.05;;
56830;SDS011;42713;42.676;23.352;2023-06-14T14:14:39;10.25;;;5.82;;
56830;SDS011;42713;42.676;23.352;2023-06-14T14:17:05;12.63;;;6.25;;
56830;SDS011;42713;42.676;23.352;2023-06-14T14:19:32;10.82;;;6.03;;
56830;SDS011;42713;42.676;23.352;2023-06-14T14:22:00;9.90;;;5.50;;
56830;SDS011;42713;42.676;23.352;2023-06-14T14:24:26;10.93;;;5.72;;
56830;SDS011;42713;42.676;23.352;2023-06-14T14:26:52;10.85;;;5.63;;
56830;SDS011;42713;42.676;23.352;2023-06-14T14:29:18;8.77;;;5.30;;
56830;SDS011;42713;42.676;23.352;2023-06-14T14:31:44;11.18;;;5.70;;
56830;SDS011;42713;42.676;23.352;2023-06-14T14:34:10;12.38;;;6.60;;
56830;SDS011;42713;42.676;23.352;2023-06-14T14:36:35;12.13;;;6.35;;
56830;SDS011;42713;42.676;23.352;2023-06-14T14:39:03;9.85;;;5.63;;
56830;SDS011;42713;42.676;23.352;2023-06-14T14:41:29;10.18;;;6.00;;
56830;SDS011;42713;42.676;23.352;2023-06-14T14:43:55;14.45;;;6.03;;